Weather at Avenger Field

Public forecast

Using degrees Fahrenheit for public forecast. Weather courtesy of forecast.io.

Current aviation weather report (METAR) for Avenger Field

2024/05/28 12:15 (retrieved 33 minutes ago)

KSWW 281215Z AUTO 19011KT 3SM 25/23 A3001 RMK AO2 T02470228

Closest aviation forecast (TAF) to Avenger Field

Closest forecast is Dyess Air Force Base, 31.2 nm (57.7 km) E.

2024/05/28 11:06 (retrieved 2 hours ago)

TAF KDYS 281100Z 2811/2917 16012G18KT 9999 BKN020 QNH2992INS TEMPO 2812/2814 BKN015 BECMG 2813/2814 18015G20KT 9999 BKN020 QNH2993INS BECMG 2822/2823 VRB35G45KT 4800 TSRAGR BKN010CB QNH2984INS BECMG 2905/2906 18012G18KT 8000 SHRA BKN015 QNH2987INS BECMG 2910/2911 VRB15G25KT 8000 TSRA BKN010CB QNH2987INS BECMG 2912/2913 09012KT 9999 NSW BKN020 QNH2997INS TX37/2818Z TN21/2911Z